Time;durP1;ratioP1;P1;durP2;ratioP2;P2;SDS_P1;SDS_P2;PMS_P1;PMS_P2;Temp;Humidity;BMP_temperature;BMP_pressure;BME280_temperature;BME280_humidity;BME280_pressure;Samples;Min_cycle;Max_cycle;Signal;HPM_P1;HPM_P2
2022/07/23 00:01:22;;;;;;;3.63;2.65;;;;;;;;;;5061524;28;20044;-64
2022/07/23 00:03:48;;;;;;;3.83;2.88;;;;;;;;;;5053506;28;20112;-64
2022/07/23 00:06:15;;;;;;;5.13;2.95;;;;;;;;;;5050261;28;20028;-64
2022/07/23 00:08:41;;;;;;;6.40;3.50;;;;;;;;;;5050899;28;20041;-63
2022/07/23 00:11:07;;;;;;;7.38;3.08;;;;;;;;;;5047550;28;20056;-64
2022/07/23 00:13:33;;;;;;;3.97;2.85;;;;;;;;;;5057892;28;20044;-64
2022/07/23 00:15:59;;;;;;;5.22;3.28;;;;;;;;;;5027429;28;20437;-63
2022/07/23 00:18:25;;;;;;;4.53;3.05;;;;;;;;;;5049220;28;20129;-63
2022/07/23 00:20:51;;;;;;;4.18;3.15;;;;;;;;;;5047024;28;20036;-63
2022/07/23 00:23:17;;;;;;;5.43;2.80;;;;;;;;;;5051639;28;20033;-64
2022/07/23 00:25:45;;;;;;;4.10;2.72;;;;;;;;;;5048691;28;20116;-63
2022/07/23 00:28:11;;;;;;;4.07;2.55;;;;;;;;;;5050728;28;20091;-63
2022/07/23 00:30:37;;;;;;;5.65;3.15;;;;;;;;;;5048479;28;20047;-64
2022/07/23 00:33:04;;;;;;;5.63;2.78;;;;;;;;;;5051994;28;20036;-63
2022/07/23 00:35:31;;;;;;;5.60;3.13;;;;;;;;;;5050354;28;20090;-64
2022/07/23 00:37:57;;;;;;;4.65;2.85;;;;;;;;;;5050307;28;20409;-64
2022/07/23 00:40:23;;;;;;;6.45;3.08;;;;;;;;;;5054056;28;20143;-64
2022/07/23 00:42:49;;;;;;;6.18;3.50;;;;;;;;;;5063297;28;20128;-64
2022/07/23 00:45:15;;;;;;;4.53;3.33;;;;;;;;;;5052343;28;20060;-64
2022/07/23 00:47:42;;;;;;;5.20;3.28;;;;;;;;;;5054844;28;20052;-64
2022/07/23 00:50:09;;;;;;;4.15;3.13;;;;;;;;;;5046136;28;20067;-63
2022/07/23 00:52:35;;;;;;;5.60;3.08;;;;;;;;;;5048269;28;20111;-64
2022/07/23 00:55:01;;;;;;;3.88;3.17;;;;;;;;;;5051243;28;20086;-64
2022/07/23 00:57:28;;;;;;;5.15;3.55;;;;;;;;;;5034567;28;20051;-64
2022/07/23 00:59:54;;;;;;;6.88;3.40;;;;;;;;;;5031444;28;20044;-64
2022/07/23 01:02:20;;;;;;;4.43;3.13;;;;;;;;;;5048597;28;20128;-64
2022/07/23 01:04:46;;;;;;;5.35;3.30;;;;;;;;;;5045254;28;20112;-64
2022/07/23 01:07:12;;;;;;;4.40;3.10;;;;;;;;;;5048311;28;20465;-63
2022/07/23 01:09:38;;;;;;;4.53;3.28;;;;;;;;;;5052534;28;20042;-63
2022/07/23 01:12:05;;;;;;;5.65;3.00;;;;;;;;;;5036987;28;20047;-64
2022/07/23 01:14:31;;;;;;;5.05;3.72;;;;;;;;;;5049623;28;20045;-63
2022/07/23 01:16:57;;;;;;;4.80;3.25;;;;;;;;;;5059149;28;20050;-63
2022/07/23 01:19:23;;;;;;;6.28;3.45;;;;;;;;;;5050746;28;20037;-64
2022/07/23 01:21:50;;;;;;;5.88;3.13;;;;;;;;;;5047506;28;20065;-64
2022/07/23 01:24:16;;;;;;;6.88;3.38;;;;;;;;;;5051541;28;20071;-63
2022/07/23 01:26:43;;;;;;;4.22;3.28;;;;;;;;;;5059487;28;20033;-64
2022/07/23 01:29:10;;;;;;;5.90;3.50;;;;;;;;;;5051624;28;20036;-64
2022/07/23 01:31:36;;;;;;;4.32;3.00;;;;;;;;;;5047394;28;20167;-64
2022/07/23 01:34:02;;;;;;;4.40;3.05;;;;;;;;;;5031403;28;20077;-64
2022/07/23 01:36:28;;;;;;;5.05;3.10;;;;;;;;;;5045277;28;20045;-64
2022/07/23 01:38:54;;;;;;;4.90;2.25;;;;;;;;;;5044625;28;20078;-64
2022/07/23 01:41:20;;;;;;;4.00;1.90;;;;;;;;;;5049999;28;20655;-64
2022/07/23 01:43:47;;;;;;;2.92;2.08;;;;;;;;;;5048918;28;20037;-64
2022/07/23 01:46:13;;;;;;;3.03;2.10;;;;;;;;;;5030715;28;20048;-64
2022/07/23 01:48:39;;;;;;;3.35;2.30;;;;;;;;;;5052156;28;20033;-64
2022/07/23 01:51:05;;;;;;;3.60;2.50;;;;;;;;;;5050009;28;20040;-64
2022/07/23 01:53:31;;;;;;;4.10;2.78;;;;;;;;;;5050342;28;20032;-63
2022/07/23 01:55:58;;;;;;;3.67;2.97;;;;;;;;;;5050630;28;20040;-64
2022/07/23 01:58:24;;;;;;;3.13;2.83;;;;;;;;;;5048169;28;20048;-63
2022/07/23 02:00:50;;;;;;;5.80;2.72;;;;;;;;;;5049471;28;20080;-64
2022/07/23 02:03:16;;;;;;;4.70;3.05;;;;;;;;;;5063195;28;20060;-64
2022/07/23 02:05:42;;;;;;;4.60;3.70;;;;;;;;;;5043006;28;20029;-64
2022/07/23 02:08:08;;;;;;;6.43;3.30;;;;;;;;;;5050352;28;20110;-64
2022/07/23 02:10:34;;;;;;;4.95;3.38;;;;;;;;;;5048187;28;20060;-63
2022/07/23 02:13:00;;;;;;;5.15;3.80;;;;;;;;;;5044995;28;20065;-63
2022/07/23 02:15:28;;;;;;;5.03;3.20;;;;;;;;;;5036795;28;20406;-64
2022/07/23 02:17:54;;;;;;;5.30;3.28;;;;;;;;;;5047987;28;20033;-63
2022/07/23 02:20:20;;;;;;;4.68;3.28;;;;;;;;;;5050071;28;20230;-64
2022/07/23 02:22:46;;;;;;;4.03;3.08;;;;;;;;;;5036201;28;20037;-64
2022/07/23 02:25:12;;;;;;;3.90;2.78;;;;;;;;;;5048891;28;20037;-63
2022/07/23 02:27:38;;;;;;;3.20;2.88;;;;;;;;;;5057749;28;20037;-64
2022/07/23 02:30:05;;;;;;;4.55;2.90;;;;;;;;;;5045037;28;20448;-64
2022/07/23 02:32:31;;;;;;;4.75;3.00;;;;;;;;;;5050336;28;20060;-64
2022/07/23 02:34:57;;;;;;;3.72;2.92;;;;;;;;;;5048635;28;20116;-63
2022/07/23 02:37:23;;;;;;;4.20;3.08;;;;;;;;;;5049636;22;20057;-63
2022/07/23 02:39:49;;;;;;;3.70;3.00;;;;;;;;;;5024579;28;20030;-63
2022/07/23 02:42:15;;;;;;;4.47;3.10;;;;;;;;;;5044548;28;20073;-63
2022/07/23 02:44:41;;;;;;;3.03;2.70;;;;;;;;;;5030365;28;20071;-63
2022/07/23 02:47:07;;;;;;;4.00;2.70;;;;;;;;;;5014191;28;20088;-63
2022/07/23 02:49:33;;;;;;;3.55;3.00;;;;;;;;;;5010075;28;20096;-64
2022/07/23 02:51:59;;;;;;;4.57;2.80;;;;;;;;;;5019677;28;20042;-64
2022/07/23 02:54:25;;;;;;;4.50;2.67;;;;;;;;;;5023928;28;20045;-64
2022/07/23 02:56:52;;;;;;;3.80;2.95;;;;;;;;;;5023791;28;20067;-64
2022/07/23 02:59:18;;;;;;;4.15;2.38;;;;;;;;;;5019613;28;20061;-64
2022/07/23 03:01:44;;;;;;;2.03;1.80;;;;;;;;;;5009981;28;20038;-64
2022/07/23 03:04:10;;;;;;;2.55;2.10;;;;;;;;;;5019080;28;20030;-64
2022/07/23 03:06:36;;;;;;;2.42;2.13;;;;;;;;;;5009464;28;20056;-64
2022/07/23 03:09:03;;;;;;;3.95;1.77;;;;;;;;;;5012604;28;20030;-64
2022/07/23 03:11:29;;;;;;;3.17;2.10;;;;;;;;;;5032140;28;20403;-64
2022/07/23 03:13:55;;;;;;;2.40;1.95;;;;;;;;;;5022901;28;20088;-64
2022/07/23 03:16:21;;;;;;;2.30;1.80;;;;;;;;;;5013293;28;20041;-64
2022/07/23 03:18:47;;;;;;;3.20;1.80;;;;;;;;;;5012688;28;20046;-64
2022/07/23 03:21:14;;;;;;;5.00;2.10;;;;;;;;;;5021396;28;20041;-64
2022/07/23 03:23:40;;;;;;;3.38;1.98;;;;;;;;;;5025998;28;20029;-64
2022/07/23 03:26:06;;;;;;;3.50;2.28;;;;;;;;;;5016901;28;20038;-64
2022/07/23 03:28:32;;;;;;;3.72;2.60;;;;;;;;;;5019849;28;20037;-64
2022/07/23 03:30:58;;;;;;;2.45;1.98;;;;;;;;;;5011508;28;20096;-64
2022/07/23 03:33:24;;;;;;;2.13;1.85;;;;;;;;;;5006240;28;20084;-64
2022/07/23 03:35:50;;;;;;;2.83;1.85;;;;;;;;;;5011025;28;20045;-64
2022/07/23 03:38:16;;;;;;;2.10;1.50;;;;;;;;;;5018621;28;20042;-64
2022/07/23 03:40:43;;;;;;;2.10;1.90;;;;;;;;;;5025936;28;20108;-64
2022/07/23 03:43:09;;;;;;;2.42;1.73;;;;;;;;;;5015036;28;20048;-64
2022/07/23 03:45:35;;;;;;;2.33;2.05;;;;;;;;;;5010248;28;20492;-64
2022/07/23 03:48:01;;;;;;;3.17;1.85;;;;;;;;;;5011779;28;20038;-64
2022/07/23 03:50:27;;;;;;;2.42;2.15;;;;;;;;;;5022135;28;20041;-64
2022/07/23 03:52:53;;;;;;;4.38;2.10;;;;;;;;;;5015956;28;20041;-64
2022/07/23 03:55:20;;;;;;;3.33;2.20;;;;;;;;;;5025768;28;20041;-64
2022/07/23 03:57:46;;;;;;;4.38;2.30;;;;;;;;;;5024783;28;20073;-64
2022/07/23 04:00:13;;;;;;;2.95;2.22;;;;;;;;;;5013049;28;20065;-64
2022/07/23 04:02:39;;;;;;;3.95;2.30;;;;;;;;;;5013650;28;20038;-64
2022/07/23 04:05:05;;;;;;;4.32;2.17;;;;;;;;;;5021801;28;20610;-64
2022/07/23 04:07:31;;;;;;;2.65;1.00;;;;;;;;;;5020444;28;20701;-64
2022/07/23 04:09:57;;;;;;;2.60;1.40;;;;;;;;;;5024055;28;20038;-64
2022/07/23 04:12:24;;;;;;;1.95;1.75;;;;;;;;;;5020988;28;20128;-64
2022/07/23 04:14:50;;;;;;;1.80;1.42;;;;;;;;;;5012207;28;20044;-64
2022/07/23 04:17:16;;;;;;;3.33;1.77;;;;;;;;;;5013974;28;20041;-64
2022/07/23 04:19:43;;;;;;;2.95;1.88;;;;;;;;;;5019645;28;20403;-64
2022/07/23 04:22:10;;;;;;;3.97;1.90;;;;;;;;;;5005389;28;20085;-64
2022/07/23 04:24:36;;;;;;;2.42;2.08;;;;;;;;;;5008817;28;20117;-64
2022/07/23 04:27:02;;;;;;;3.17;2.30;;;;;;;;;;5008954;28;20077;-64
2022/07/23 04:29:28;;;;;;;3.33;2.60;;;;;;;;;;5007845;28;20045;-64
2022/07/23 04:31:54;;;;;;;3.05;2.38;;;;;;;;;;5009042;28;20116;-64
2022/07/23 04:34:20;;;;;;;4.07;2.60;;;;;;;;;;5009307;28;20042;-63
2022/07/23 04:36:46;;;;;;;5.50;2.80;;;;;;;;;;5012327;28;20044;-63
2022/07/23 04:39:12;;;;;;;7.45;4.22;;;;;;;;;;5012328;28;20038;-63
2022/07/23 04:41:38;;;;;;;6.90;4.10;;;;;;;;;;5011220;28;20037;-63
2022/07/23 04:44:04;;;;;;;6.82;4.32;;;;;;;;;;5011813;28;20121;-64
2022/07/23 04:46:30;;;;;;;5.28;2.78;;;;;;;;;;5021318;28;20044;-63
2022/07/23 04:48:56;;;;;;;3.53;2.95;;;;;;;;;;5017731;28;20034;-64
2022/07/23 04:51:22;;;;;;;4.93;3.95;;;;;;;;;;5015233;28;20049;-64
2022/07/23 04:53:48;;;;;;;5.85;4.35;;;;;;;;;;5026338;28;20453;-64
2022/07/23 04:56:14;;;;;;;6.18;4.32;;;;;;;;;;5028334;28;20033;-64
2022/07/23 04:58:41;;;;;;;6.25;4.15;;;;;;;;;;5010365;28;20488;-63
2022/07/23 05:01:07;;;;;;;8.10;4.60;;;;;;;;;;5008303;28;20038;-64
2022/07/23 05:03:33;;;;;;;5.97;4.20;;;;;;;;;;5011023;28;20034;-63
2022/07/23 05:05:59;;;;;;;6.72;4.07;;;;;;;;;;5012750;28;20064;-64
2022/07/23 05:08:25;;;;;;;8.32;4.07;;;;;;;;;;5014303;28;20046;-63
2022/07/23 05:10:51;;;;;;;8.15;3.95;;;;;;;;;;5008383;28;20040;-64
2022/07/23 05:13:17;;;;;;;7.20;4.20;;;;;;;;;;5010738;28;20103;-64
2022/07/23 05:15:44;;;;;;;6.50;4.07;;;;;;;;;;5012429;28;20041;-63
2022/07/23 05:18:10;;;;;;;7.57;4.57;;;;;;;;;;5009841;28;20039;-63
2022/07/23 05:20:36;;;;;;;9.25;4.05;;;;;;;;;;5010753;28;20034;-64
2022/07/23 05:23:03;;;;;;;6.80;4.18;;;;;;;;;;5010539;28;20042;-63
2022/07/23 05:25:29;;;;;;;9.23;4.43;;;;;;;;;;5009862;28;20048;-64
2022/07/23 05:27:55;;;;;;;5.30;3.88;;;;;;;;;;5007471;28;20034;-63
2022/07/23 05:30:21;;;;;;;7.47;4.38;;;;;;;;;;5009520;28;20052;-63
2022/07/23 05:32:47;;;;;;;8.15;4.00;;;;;;;;;;5003285;28;20496;-63
2022/07/23 05:35:13;;;;;;;10.00;4.07;;;;;;;;;;5013614;28;20037;-63
2022/07/23 05:37:39;;;;;;;7.10;3.85;;;;;;;;;;5009813;28;20038;-63
2022/07/23 05:40:07;;;;;;;7.32;4.25;;;;;;;;;;5006634;28;20887;-63
2022/07/23 05:42:33;;;;;;;5.65;3.97;;;;;;;;;;5008444;28;20049;-61
2022/07/23 05:44:59;;;;;;;7.05;3.40;;;;;;;;;;5011014;28;20061;-62
2022/07/23 05:47:25;;;;;;;7.07;4.20;;;;;;;;;;5020496;28;20072;-61
2022/07/23 05:49:51;;;;;;;7.45;4.30;;;;;;;;;;5014658;28;20470;-61
2022/07/23 05:52:17;;;;;;;8.75;4.40;;;;;;;;;;5016394;28;20073;-61
2022/07/23 05:54:43;;;;;;;7.07;4.07;;;;;;;;;;5011555;28;20088;-62
2022/07/23 05:57:09;;;;;;;6.63;4.13;;;;;;;;;;5005763;28;20034;-61
2022/07/23 05:59:35;;;;;;;10.35;4.10;;;;;;;;;;5006675;28;20049;-61
2022/07/23 06:02:01;;;;;;;6.72;4.20;;;;;;;;;;4998776;28;20054;-61
2022/07/23 06:04:28;;;;;;;6.00;4.20;;;;;;;;;;5003805;28;20038;-61
2022/07/23 06:06:54;;;;;;;10.38;4.35;;;;;;;;;;5007760;28;20133;-61
2022/07/23 06:09:20;;;;;;;9.30;4.57;;;;;;;;;;5008178;28;20555;-62
2022/07/23 06:11:46;;;;;;;5.43;4.13;;;;;;;;;;5011410;28;20088;-62
2022/07/23 06:14:12;;;;;;;7.80;4.20;;;;;;;;;;5008271;28;20038;-61
2022/07/23 06:16:38;;;;;;;8.57;4.32;;;;;;;;;;5008737;28;20037;-61
2022/07/23 06:19:04;;;;;;;6.20;3.78;;;;;;;;;;5006598;28;20038;-61
2022/07/23 06:21:30;;;;;;;5.03;3.60;;;;;;;;;;5007175;28;20100;-61
2022/07/23 06:23:56;;;;;;;10.68;4.00;;;;;;;;;;5010348;28;20038;-61
2022/07/23 06:26:22;;;;;;;5.45;4.10;;;;;;;;;;5006302;28;20057;-61
2022/07/23 06:28:47;;;;;;;4.43;3.13;;;;;;;;;;4991954;28;20531;-61
2022/07/23 06:31:13;;;;;;;8.23;3.50;;;;;;;;;;5007926;28;20037;-61
2022/07/23 06:33:39;;;;;;;3.75;3.08;;;;;;;;;;5009975;28;20436;-61
2022/07/23 06:36:06;;;;;;;7.53;3.50;;;;;;;;;;5009263;28;20045;-62
2022/07/23 06:38:32;;;;;;;3.55;2.88;;;;;;;;;;5008755;28;20038;-62
2022/07/23 06:40:58;;;;;;;7.30;3.58;;;;;;;;;;5009830;28;20045;-61
2022/07/23 06:43:24;;;;;;;5.05;3.22;;;;;;;;;;5021386;28;20041;-61
2022/07/23 06:45:50;;;;;;;3.92;2.83;;;;;;;;;;4997745;28;20488;-61
2022/07/23 06:48:16;;;;;;;6.38;2.65;;;;;;;;;;5003869;28;20040;-62
2022/07/23 06:50:42;;;;;;;5.07;2.70;;;;;;;;;;5002967;28;20117;-62
2022/07/23 06:53:08;;;;;;;7.18;2.75;;;;;;;;;;5009526;28;20164;-62
2022/07/23 06:55:38;;;;;;;5.93;2.20;;;;;;;;;;4984670;28;20042;-62
2022/07/23 06:58:04;;;;;;;5.63;2.30;;;;;;;;;;5008144;28;20186;-61
2022/07/23 07:00:31;;;;;;;6.38;2.45;;;;;;;;;;5005068;28;20046;-61
2022/07/23 07:02:57;;;;;;;5.55;2.00;;;;;;;;;;5003880;28;20052;-61
2022/07/23 07:05:25;;;;;;;4.07;1.88;;;;;;;;;;5007654;28;20049;-62
2022/07/23 07:07:51;;;;;;;4.35;1.70;;;;;;;;;;5005303;28;20991;-61
2022/07/23 07:10:17;;;;;;;4.80;1.77;;;;;;;;;;4990701;28;20085;-61
2022/07/23 07:12:43;;;;;;;3.85;1.88;;;;;;;;;;5009907;28;20128;-62
2022/07/23 07:15:10;;;;;;;2.53;1.85;;;;;;;;;;5011103;28;20045;-61
2022/07/23 07:17:36;;;;;;;5.15;1.92;;;;;;;;;;5003370;28;20128;-62
2022/07/23 07:20:02;;;;;;;3.47;1.88;;;;;;;;;;5021135;28;20041;-62
2022/07/23 07:22:28;;;;;;;2.75;1.67;;;;;;;;;;5020340;28;20054;-62
2022/07/23 07:24:54;;;;;;;4.07;1.70;;;;;;;;;;5008789;28;20040;-62
2022/07/23 07:27:20;;;;;;;4.93;1.83;;;;;;;;;;5010820;28;20042;-62
2022/07/23 07:29:46;;;;;;;3.65;1.60;;;;;;;;;;5008618;28;20046;-62
2022/07/23 07:32:12;;;;;;;2.85;1.63;;;;;;;;;;5009665;28;20044;-62
2022/07/23 07:34:38;;;;;;;4.50;1.70;;;;;;;;;;4994618;28;20042;-61
2022/07/23 07:37:04;;;;;;;2.72;1.48;;;;;;;;;;5012513;28;20092;-62
2022/07/23 07:39:30;;;;;;;2.95;1.60;;;;;;;;;;5002577;28;20050;-62
2022/07/23 07:41:56;;;;;;;3.88;1.70;;;;;;;;;;5019194;28;20052;-62
2022/07/23 07:44:22;;;;;;;4.57;1.50;;;;;;;;;;5007943;28;20065;-61
2022/07/23 07:46:48;;;;;;;5.65;1.55;;;;;;;;;;5008351;28;20037;-62
2022/07/23 07:49:17;;;;;;;1.60;1.23;;;;;;;;;;5014757;28;20034;-61
2022/07/23 07:51:43;;;;;;;4.03;1.60;;;;;;;;;;5019649;28;20420;-62
2022/07/23 07:54:09;;;;;;;2.78;1.30;;;;;;;;;;5006361;28;20048;-61
2022/07/23 07:56:35;;;;;;;5.63;1.50;;;;;;;;;;5009463;28;20053;-62
2022/07/23 07:59:01;;;;;;;4.20;1.30;;;;;;;;;;5006443;28;20062;-62
2022/07/23 08:01:27;;;;;;;1.77;0.98;;;;;;;;;;5011405;28;20129;-62
2022/07/23 08:03:53;;;;;;;1.30;0.82;;;;;;;;;;5013301;28;20042;-61
2022/07/23 08:06:19;;;;;;;2.42;0.90;;;;;;;;;;5006272;28;20125;-62
2022/07/23 08:08:45;;;;;;;2.15;0.85;;;;;;;;;;5010767;28;20038;-61
2022/07/23 08:11:11;;;;;;;1.25;0.70;;;;;;;;;;5004433;28;20171;-62
2022/07/23 08:13:37;;;;;;;2.38;1.08;;;;;;;;;;4993032;28;20084;-62
2022/07/23 08:16:03;;;;;;;4.07;0.95;;;;;;;;;;5007074;28;20197;-62
2022/07/23 08:18:29;;;;;;;3.92;1.00;;;;;;;;;;5016851;28;20037;-61
2022/07/23 08:20:55;;;;;;;1.58;0.70;;;;;;;;;;5012898;28;20037;-61
2022/07/23 08:23:21;;;;;;;3.72;0.73;;;;;;;;;;5014229;28;20041;-62
2022/07/23 08:25:47;;;;;;;2.92;0.73;;;;;;;;;;5011754;28;20506;-61
2022/07/23 08:28:14;;;;;;;0.93;0.63;;;;;;;;;;5010780;28;20054;-61
2022/07/23 08:30:41;;;;;;;1.70;0.70;;;;;;;;;;5021454;28;20482;-61
2022/07/23 08:33:13;;;;;;;2.35;0.95;;;;;;;;;;5012399;28;20041;-62
2022/07/23 08:38:19;;;;;;;;;;;;;;;;;;5027336;28;20056;-64
2022/07/23 08:40:47;;;;;;;2.15;0.60;;;;;;;;;;5023019;28;19917;-63
2022/07/23 08:43:14;;;;;;;3.15;0.80;;;;;;;;;;5026254;28;20038;-64
2022/07/23 08:45:41;;;;;;;0.70;0.70;;;;;;;;;;5032917;28;20127;-63
2022/07/23 08:48:13;;;;;;;1.83;0.60;;;;;;;;;;5027713;28;20044;-63
2022/07/23 08:50:42;;;;;;;2.47;0.80;;;;;;;;;;5029345;28;20041;-63
2022/07/23 08:53:08;;;;;;;3.53;0.73;;;;;;;;;;5030413;28;20049;-63
2022/07/23 08:55:34;;;;;;;1.40;0.70;;;;;;;;;;5031094;28;20038;-63
2022/07/23 08:58:01;;;;;;;4.20;0.85;;;;;;;;;;5024986;28;20061;-63
2022/07/23 09:00:27;;;;;;;1.45;0.70;;;;;;;;;;5028806;28;20069;-64
2022/07/23 09:02:53;;;;;;;2.33;0.73;;;;;;;;;;5031775;28;20517;-64
2022/07/23 09:05:20;;;;;;;2.55;0.70;;;;;;;;;;5024489;28;20949;-64
2022/07/23 09:08:05;;;;;;;1.02;0.70;;;;;;;;;;5024360;28;20073;-64
2022/07/23 09:10:42;;;;;;;0.75;0.70;;;;;;;;;;5027604;28;20095;-64
2022/07/23 09:13:23;;;;;;;1.00;0.73;;;;;;;;;;5028828;28;20041;-64
2022/07/23 09:15:49;;;;;;;1.25;0.70;;;;;;;;;;5024096;28;20047;-64
2022/07/23 09:18:16;;;;;;;2.45;0.70;;;;;;;;;;5023037;28;20049;-64
2022/07/23 09:20:44;;;;;;;1.95;0.80;;;;;;;;;;5028009;28;20037;-64
2022/07/23 09:23:09;;;;;;;0.82;0.60;;;;;;;;;;5030270;28;20486;-64
2022/07/23 09:25:36;;;;;;;2.25;0.70;;;;;;;;;;5028868;28;20065;-64
2022/07/23 09:28:02;;;;;;;2.28;0.75;;;;;;;;;;5030807;28;20034;-63
2022/07/23 09:30:30;;;;;;;4.60;0.85;;;;;;;;;;5029065;28;20038;-63
2022/07/23 09:33:13;;;;;;;1.08;0.60;;;;;;;;;;5024571;28;20068;-63
2022/07/23 09:35:45;;;;;;;1.92;0.75;;;;;;;;;;5028972;28;20044;-64
2022/07/23 09:38:11;;;;;;;2.58;0.90;;;;;;;;;;5026333;28;20438;-63
2022/07/23 09:40:37;;;;;;;2.38;0.60;;;;;;;;;;5031503;28;20124;-63
2022/07/23 09:43:03;;;;;;;2.80;0.90;;;;;;;;;;5028520;28;20042;-63
2022/07/23 09:45:29;;;;;;;3.95;1.00;;;;;;;;;;5030026;28;20048;-64
2022/07/23 09:48:12;;;;;;;1.33;0.70;;;;;;;;;;5027498;28;20121;-63
2022/07/23 09:50:38;;;;;;;3.55;0.70;;;;;;;;;;5029748;28;20041;-63
2022/07/23 09:53:04;;;;;;;1.52;0.90;;;;;;;;;;5030605;28;20219;-63
2022/07/23 09:55:38;;;;;;;0.88;0.70;;;;;;;;;;5023493;28;20045;-64
2022/07/23 09:58:12;;;;;;;1.40;0.68;;;;;;;;;;5031728;28;20045;-63
2022/07/23 10:00:38;;;;;;;1.08;0.70;;;;;;;;;;5027033;28;20049;-64
2022/07/23 10:03:06;;;;;;;1.05;0.60;;;;;;;;;;5026785;28;20046;-64
2022/07/23 10:05:34;;;;;;;2.35;0.70;;;;;;;;;;5029042;28;20049;-63
2022/07/23 10:08:02;;;;;;;1.33;0.80;;;;;;;;;;5031369;28;20561;-63
2022/07/23 10:10:29;;;;;;;1.15;0.70;;;;;;;;;;5030251;28;20103;-64
2022/07/23 10:15:41;;;;;;;1.23;0.70;;;;;;;;;;5025486;28;20046;-64
2022/07/23 10:18:07;;;;;;;1.48;0.80;;;;;;;;;;5029213;28;20045;-64
2022/07/23 10:20:33;;;;;;;1.67;0.65;;;;;;;;;;5029398;28;20049;-62
2022/07/23 10:23:11;;;;;;;1.13;0.77;;;;;;;;;;5028207;28;20047;-63
2022/07/23 10:25:40;;;;;;;0.70;0.50;;;;;;;;;;5030130;28;20557;-62
2022/07/23 10:28:17;;;;;;;0.77;0.68;;;;;;;;;;5027187;28;20033;-62
2022/07/23 10:30:59;;;;;;;0.70;0.70;;;;;;;;;;5025698;28;20083;-62
2022/07/23 10:33:37;;;;;;;0.88;0.60;;;;;;;;;;5031772;28;20041;-62
2022/07/23 10:36:06;;;;;;;1.52;0.80;;;;;;;;;;5030924;28;20034;-62
2022/07/23 10:38:53;;;;;;;0.70;0.70;;;;;;;;;;5025892;28;20046;-62
2022/07/23 10:41:54;;;;;;;2.28;1.00;;;;;;;;;;5026352;28;20108;-62
2022/07/23 10:44:25;;;;;;;1.33;0.70;;;;;;;;;;4969128;28;20042;-62
2022/07/23 10:49:30;;;;;;;5.78;0.70;;;;;;;;;;5027994;28;20763;-62
2022/07/23 10:52:23;;;;;;;2.17;0.65;;;;;;;;;;5030163;28;20452;-63
2022/07/23 10:54:52;;;;;;;0.70;0.70;;;;;;;;;;5026565;28;20517;-63
2022/07/23 10:57:19;;;;;;;1.67;0.70;;;;;;;;;;5026337;28;20083;-62
2022/07/23 11:00:12;;;;;;;1.23;0.80;;;;;;;;;;5027397;28;20041;-62
2022/07/23 11:02:42;;;;;;;0.88;0.80;;;;;;;;;;5020651;28;20045;-63
2022/07/23 11:05:13;;;;;;;1.73;0.80;;;;;;;;;;5028087;28;20048;-63
2022/07/23 11:07:59;;;;;;;1.75;0.95;;;;;;;;;;5023251;28;20045;-63
2022/07/23 11:10:44;;;;;;;2.05;0.70;;;;;;;;;;5026916;28;20580;-62
2022/07/23 11:13:22;;;;;;;0.70;0.70;;;;;;;;;;5025093;28;20402;-63
2022/07/23 11:16:05;;;;;;;1.80;0.80;;;;;;;;;;5030110;28;20454;-63
2022/07/23 11:18:40;;;;;;;1.17;0.68;;;;;;;;;;5028495;28;20041;-62
2022/07/23 11:21:23;;;;;;;1.73;1.05;;;;;;;;;;5024196;28;20496;-63
2022/07/23 11:24:06;;;;;;;1.55;0.90;;;;;;;;;;5024949;28;20076;-63
2022/07/23 11:26:41;;;;;;;3.53;1.10;;;;;;;;;;5026881;28;20033;-63
2022/07/23 11:29:30;;;;;;;2.17;0.90;;;;;;;;;;5027892;28;20041;-62
2022/07/23 11:31:56;;;;;;;1.75;1.10;;;;;;;;;;5026076;28;20041;-63
2022/07/23 11:34:46;;;;;;;1.40;1.00;;;;;;;;;;5032466;28;20045;-63
2022/07/23 11:37:13;;;;;;;1.63;0.85;;;;;;;;;;5029637;28;20056;-63
2022/07/23 11:39:39;;;;;;;1.30;0.95;;;;;;;;;;5029668;28;20452;-63
2022/07/23 11:42:06;;;;;;;1.52;0.90;;;;;;;;;;5031503;28;20053;-62
2022/07/23 11:44:32;;;;;;;1.67;1.00;;;;;;;;;;5038095;28;20483;-63
2022/07/23 11:47:09;;;;;;;2.30;1.20;;;;;;;;;;5033053;28;20034;-63
2022/07/23 11:49:36;;;;;;;2.30;0.98;;;;;;;;;;5031087;28;20061;-63
2022/07/23 11:52:05;;;;;;;2.88;1.27;;;;;;;;;;5028163;28;20033;-63
2022/07/23 11:54:31;;;;;;;1.17;0.90;;;;;;;;;;5030862;28;20044;-63
2022/07/23 11:57:00;;;;;;;2.40;1.02;;;;;;;;;;5031544;28;20037;-63
2022/07/23 11:59:27;;;;;;;1.40;1.20;;;;;;;;;;5026918;28;20045;-62
2022/07/23 12:02:04;;;;;;;2.25;1.20;;;;;;;;;;5032806;28;20038;-63
2022/07/23 12:04:39;;;;;;;2.78;1.30;;;;;;;;;;5030440;28;20048;-62
2022/07/23 12:07:23;;;;;;;3.80;1.40;;;;;;;;;;5030672;28;20057;-63
2022/07/23 12:09:49;;;;;;;1.38;1.17;;;;;;;;;;5024586;28;20103;-63
2022/07/23 12:12:15;;;;;;;2.78;1.50;;;;;;;;;;5029214;28;20053;-63
2022/07/23 12:14:50;;;;;;;3.08;1.20;;;;;;;;;;5032982;28;20065;-62
2022/07/23 12:17:16;;;;;;;1.85;1.20;;;;;;;;;;5033102;28;20578;-63
2022/07/23 12:19:42;;;;;;;1.83;1.38;;;;;;;;;;5028261;28;20041;-63
2022/07/23 12:22:08;;;;;;;2.63;1.20;;;;;;;;;;5030373;28;20161;-63
2022/07/23 12:24:53;;;;;;;2.58;1.60;;;;;;;;;;5033445;28;20103;-62
2022/07/23 12:27:22;;;;;;;2.42;1.20;;;;;;;;;;5029898;28;20502;-63
2022/07/23 12:29:48;;;;;;;2.47;1.13;;;;;;;;;;5034729;28;20029;-63
2022/07/23 12:32:25;;;;;;;2.03;1.38;;;;;;;;;;5030619;28;20045;-63
2022/07/23 12:35:02;;;;;;;2.15;1.63;;;;;;;;;;5031610;28;20403;-63
2022/07/23 12:37:29;;;;;;;2.60;1.65;;;;;;;;;;5030869;28;20049;-62
2022/07/23 12:39:55;;;;;;;2.10;1.40;;;;;;;;;;5030161;28;20116;-62
2022/07/23 12:42:24;;;;;;;1.63;1.30;;;;;;;;;;5030241;28;20041;-62
2022/07/23 12:45:19;;;;;;;2.72;1.30;;;;;;;;;;5030972;28;20046;-62
2022/07/23 12:48:20;;;;;;;1.40;1.13;;;;;;;;;;5019784;28;20052;-62
2022/07/23 12:50:49;;;;;;;2.30;1.35;;;;;;;;;;4986949;28;20125;-62
2022/07/23 12:53:16;;;;;;;1.75;1.38;;;;;;;;;;5015656;28;20119;-63
2022/07/23 12:55:46;;;;;;;2.63;1.55;;;;;;;;;;5031839;28;20038;-62
2022/07/23 12:58:20;;;;;;;3.00;1.48;;;;;;;;;;5033257;28;20038;-62
2022/07/23 13:00:57;;;;;;;2.35;1.67;;;;;;;;;;5030536;28;20076;-62
2022/07/23 13:03:44;;;;;;;2.65;1.42;;;;;;;;;;5033302;28;20491;-62
2022/07/23 13:06:11;;;;;;;5.10;2.28;;;;;;;;;;5028899;28;20037;-62
2022/07/23 13:08:40;;;;;;;2.95;1.88;;;;;;;;;;5030735;28;20479;-62
2022/07/23 13:11:06;;;;;;;1.50;1.40;;;;;;;;;;5031074;28;20100;-62
2022/07/23 13:13:34;;;;;;;4.50;1.58;;;;;;;;;;5031129;28;20125;-62
2022/07/23 13:16:00;;;;;;;4.57;1.50;;;;;;;;;;5027362;28;20030;-62
2022/07/23 13:18:27;;;;;;;1.60;1.40;;;;;;;;;;5026939;28;20044;-62
2022/07/23 13:20:53;;;;;;;2.33;1.45;;;;;;;;;;5028935;28;20483;-62
2022/07/23 13:23:20;;;;;;;2.50;1.50;;;;;;;;;;5026155;28;20514;-62
2022/07/23 13:25:46;;;;;;;1.88;1.42;;;;;;;;;;5030366;28;20075;-62
2022/07/23 13:28:12;;;;;;;3.47;1.50;;;;;;;;;;5032964;28;20040;-62
2022/07/23 13:30:39;;;;;;;2.58;1.50;;;;;;;;;;5031407;28;20075;-63
2022/07/23 13:33:05;;;;;;;2.83;1.65;;;;;;;;;;5031049;28;20045;-62
2022/07/23 13:35:32;;;;;;;2.28;1.60;;;;;;;;;;5027416;28;20041;-62
2022/07/23 13:37:58;;;;;;;2.47;1.40;;;;;;;;;;5030167;28;20052;-62
2022/07/23 13:40:24;;;;;;;2.30;1.40;;;;;;;;;;5030398;28;20124;-63
2022/07/23 13:42:50;;;;;;;3.05;1.58;;;;;;;;;;5030850;28;20052;-63
2022/07/23 13:45:16;;;;;;;3.47;1.98;;;;;;;;;;5032143;28;20047;-63
2022/07/23 13:47:42;;;;;;;2.17;1.92;;;;;;;;;;5031292;28;20045;-62
2022/07/23 13:50:08;;;;;;;2.40;1.67;;;;;;;;;;5027689;28;20087;-62
2022/07/23 13:52:34;;;;;;;7.03;2.85;;;;;;;;;;5022180;28;20047;-62
2022/07/23 13:55:09;;;;;;;3.08;1.90;;;;;;;;;;5027423;28;20076;-62
2022/07/23 13:57:35;;;;;;;1.95;1.52;;;;;;;;;;5029138;28;20049;-63
2022/07/23 14:00:02;;;;;;;2.33;1.67;;;;;;;;;;5027529;28;20555;-62
2022/07/23 14:02:28;;;;;;;5.40;1.65;;;;;;;;;;5028378;28;20495;-62
2022/07/23 14:04:54;;;;;;;2.38;1.48;;;;;;;;;;5024416;28;20087;-63
2022/07/23 14:07:23;;;;;;;11.13;2.70;;;;;;;;;;5018127;28;20038;-63
2022/07/23 14:09:49;;;;;;;4.88;1.90;;;;;;;;;;5018075;28;20029;-62
2022/07/23 14:12:15;;;;;;;2.42;1.63;;;;;;;;;;5027244;28;20083;-62
2022/07/23 14:14:43;;;;;;;3.03;1.63;;;;;;;;;;5009262;28;20512;-62
2022/07/23 14:17:09;;;;;;;1.85;1.63;;;;;;;;;;5015782;28;20427;-62
2022/07/23 14:19:35;;;;;;;2.13;1.92;;;;;;;;;;5013230;28;20052;-62
2022/07/23 14:22:01;;;;;;;2.60;1.70;;;;;;;;;;5020362;28;20128;-62
2022/07/23 14:24:27;;;;;;;3.30;1.73;;;;;;;;;;5023802;28;20129;-62
2022/07/23 14:26:53;;;;;;;3.05;2.00;;;;;;;;;;5028025;28;20116;-62
2022/07/23 14:29:19;;;;;;;2.05;1.70;;;;;;;;;;5027360;28;20558;-62
2022/07/23 14:31:45;;;;;;;1.67;1.58;;;;;;;;;;5031668;28;20125;-61
2022/07/23 14:34:11;;;;;;;2.45;1.75;;;;;;;;;;5029948;28;20046;-62
2022/07/23 14:36:38;;;;;;;3.70;1.60;;;;;;;;;;5043859;22;20024;-62
2022/07/23 14:39:04;;;;;;;2.50;1.50;;;;;;;;;;5047567;28;20250;-62
2022/07/23 14:41:31;;;;;;;3.05;1.70;;;;;;;;;;5031934;28;20495;-62
2022/07/23 14:43:57;;;;;;;2.22;1.65;;;;;;;;;;5044508;28;20475;-62
2022/07/23 14:46:23;;;;;;;3.17;1.80;;;;;;;;;;5038401;28;20051;-62
2022/07/23 14:48:49;;;;;;;2.83;2.00;;;;;;;;;;5027124;28;20120;-62
2022/07/23 14:51:15;;;;;;;4.10;1.83;;;;;;;;;;5028633;28;20113;-62
2022/07/23 14:53:41;;;;;;;3.83;1.80;;;;;;;;;;5021238;28;20403;-62
2022/07/23 14:56:07;;;;;;;2.22;1.88;;;;;;;;;;5028342;28;20069;-62